createdAt,value
2017-04-19T00:00:03.565Z,0
2017-04-19T00:01:13.471Z,0
2017-04-19T00:02:23.381Z,0
2017-04-19T00:03:33.585Z,0
2017-04-19T00:04:43.489Z,0
2017-04-19T00:05:53.406Z,0
2017-04-19T00:07:03.313Z,0
2017-04-19T00:08:13.232Z,0
2017-04-19T00:09:23.397Z,0
2017-04-19T00:10:33.299Z,0
2017-04-19T00:11:42.899Z,0
2017-04-19T00:12:53.104Z,0
2017-04-19T00:14:03.010Z,0
2017-04-19T00:15:13.322Z,0
2017-04-19T00:16:23.227Z,0
2017-04-19T00:17:33.136Z,0
2017-04-19T00:18:43.093Z,0
2017-04-19T00:19:53.000Z,0
2017-04-19T00:21:03.358Z,0
2017-04-19T00:22:13.268Z,0
2017-04-19T00:23:22.883Z,0
2017-04-19T00:24:33.094Z,0
2017-04-19T00:25:43.014Z,0
2017-04-19T00:26:52.875Z,0
2017-04-19T00:28:03.088Z,0
2017-04-19T00:29:12.705Z,0
2017-04-19T00:30:22.609Z,0
2017-04-19T00:31:32.199Z,0
2017-04-19T00:32:42.672Z,0
2017-04-19T00:33:52.273Z,0
2017-04-19T00:35:01.878Z,0
2017-04-19T00:36:11.783Z,0
2017-04-19T00:37:21.380Z,0
2017-04-19T00:38:31.124Z,0
2017-04-19T00:39:40.731Z,0
2017-04-19T00:40:50.945Z,0
2017-04-19T00:42:00.550Z,0
2017-04-19T00:43:10.143Z,0
2017-04-19T00:44:19.888Z,0
2017-04-19T00:45:29.488Z,0
2017-04-19T00:46:39.427Z,0
2017-04-19T00:47:49.330Z,0
2017-04-19T00:48:59.240Z,0
2017-04-19T00:50:09.561Z,0
2017-04-19T00:51:19.467Z,0
2017-04-19T00:52:29.369Z,0
2017-04-19T00:53:39.344Z,0
2017-04-19T00:54:49.555Z,0
2017-04-19T00:55:59.452Z,0
2017-04-19T00:57:09.354Z,0
2017-04-19T00:58:19.580Z,0
2017-04-19T00:59:29.799Z,0
2017-04-19T01:00:40.066Z,0
2017-04-19T01:01:49.816Z,0
2017-04-19T01:02:59.739Z,0
2017-04-19T01:04:09.638Z,0
2017-04-19T01:05:19.230Z,0
2017-04-19T01:06:28.840Z,0
2017-04-19T01:07:38.989Z,0
2017-04-19T01:08:49.223Z,0
2017-04-19T01:09:59.130Z,0
2017-04-19T01:11:09.035Z,0
2017-04-19T01:12:19.260Z,0
2017-04-19T01:13:29.101Z,0
2017-04-19T01:14:39.014Z,0
2017-04-19T01:15:49.220Z,0
2017-04-19T01:16:59.431Z,0
2017-04-19T01:18:09.349Z,0
2017-04-19T01:19:19.497Z,0
2017-04-19T01:20:29.424Z,0
2017-04-19T01:21:39.651Z,0
2017-04-19T01:22:50.043Z,0
2017-04-19T01:24:00.269Z,0
2017-04-19T01:25:10.595Z,0
2017-04-19T01:26:20.204Z,0
2017-04-19T01:27:30.115Z,0
2017-04-19T01:28:40.326Z,0
2017-04-19T01:29:49.918Z,0
2017-04-19T01:31:00.378Z,0
2017-04-19T01:32:10.289Z,0
2017-04-19T01:33:20.216Z,0
2017-04-19T01:34:30.440Z,0
2017-04-19T01:35:40.034Z,0
2017-04-19T01:36:50.524Z,0
2017-04-19T01:38:00.736Z,0
2017-04-19T01:39:10.642Z,0
2017-04-19T01:40:20.247Z,0
2017-04-19T01:41:29.853Z,0
2017-04-19T01:42:40.058Z,0
2017-04-19T01:43:49.662Z,0
2017-04-19T01:44:59.560Z,0
2017-04-19T01:46:08.857Z,0
2017-04-19T01:47:18.754Z,0
2017-04-19T01:48:28.714Z,0
2017-04-19T01:49:38.719Z,0
2017-04-19T01:50:48.635Z,0
2017-04-19T01:51:58.839Z,0
2017-04-19T01:53:09.059Z,0
2017-04-19T01:54:18.907Z,0
2017-04-19T01:55:28.504Z,0
2017-04-19T01:56:38.419Z,0
2017-04-19T01:57:48.677Z,0
2017-04-19T01:58:57.963Z,0
2017-04-19T02:00:07.988Z,0
2017-04-19T02:01:18.209Z,0
2017-04-19T02:02:27.812Z,0
2017-04-19T02:03:37.727Z,0
2017-04-19T02:04:47.949Z,0
2017-04-19T02:05:58.415Z,0
2017-04-19T02:07:08.032Z,0
2017-04-19T02:08:17.630Z,0
2017-04-19T02:09:26.917Z,0
2017-04-19T02:10:37.128Z,0
2017-04-19T02:11:46.830Z,0
2017-04-19T02:12:57.044Z,0
2017-04-19T02:14:06.637Z,0
2017-04-19T02:15:16.232Z,0
2017-04-19T02:16:26.154Z,0
2017-04-19T02:17:36.215Z,0
2017-04-19T02:18:46.129Z,0
2017-04-19T02:19:56.108Z,0
2017-04-19T02:21:06.701Z,0
2017-04-19T02:22:16.505Z,0
2017-04-19T02:23:27.461Z,0
2017-04-19T02:24:37.052Z,0
2017-04-19T02:25:47.272Z,0
2017-04-19T02:26:57.172Z,0
2017-04-19T02:28:07.078Z,0
2017-04-19T02:29:16.968Z,0
2017-04-19T02:30:26.872Z,0
2017-04-19T02:31:36.778Z,0
2017-04-19T02:32:46.682Z,0
2017-04-19T02:33:56.889Z,0
2017-04-19T02:35:06.894Z,0
2017-04-19T02:36:16.491Z,0
2017-04-19T02:37:26.104Z,0
2017-04-19T02:38:36.011Z,0
2017-04-19T02:39:46.226Z,0
2017-04-19T02:40:56.287Z,0
2017-04-19T02:42:06.504Z,0
2017-04-19T02:43:16.441Z,0
2017-04-19T02:44:26.691Z,0
2017-04-19T02:45:36.283Z,0
2017-04-19T02:46:46.441Z,0
2017-04-19T02:47:56.353Z,0
2017-04-19T02:49:06.892Z,0
2017-04-19T02:50:16.899Z,0
2017-04-19T02:51:27.114Z,0
2017-04-19T02:52:37.909Z,0
2017-04-19T02:53:47.827Z,0
2017-04-19T02:54:58.042Z,0
2017-04-19T02:56:08.252Z,0
2017-04-19T02:57:18.833Z,0
2017-04-19T02:58:29.204Z,0
2017-04-19T02:59:39.112Z,0
2017-04-19T03:00:49.034Z,0
2017-04-19T03:01:58.943Z,0
2017-04-19T03:03:08.245Z,0
2017-04-19T03:04:18.579Z,0
2017-04-19T03:05:28.483Z,0
2017-04-19T03:06:38.393Z,0
2017-04-19T03:07:48.312Z,0
2017-04-19T03:08:57.911Z,0
2017-04-19T03:10:08.293Z,0
2017-04-19T03:11:18.194Z,0
2017-04-19T03:12:28.399Z,0
2017-04-19T03:13:38.304Z,0
2017-04-19T03:14:48.219Z,0
2017-04-19T03:15:58.821Z,0
2017-04-19T03:17:09.040Z,0
2017-04-19T03:18:19.496Z,0
2017-04-19T03:19:29.732Z,0
2017-04-19T03:20:39.953Z,0
2017-04-19T03:21:50.419Z,0
2017-04-19T03:23:00.014Z,0
2017-04-19T03:24:10.230Z,0
2017-04-19T03:25:20.442Z,0
2017-04-19T03:26:30.658Z,0
2017-04-19T03:27:40.667Z,0
2017-04-19T03:28:50.583Z,0
2017-04-19T03:30:00.487Z,0
2017-04-19T03:31:10.389Z,0
2017-04-19T03:32:19.976Z,0
2017-04-19T03:33:30.459Z,0
2017-04-19T03:34:40.050Z,0
2017-04-19T03:35:49.643Z,0
2017-04-19T03:36:59.545Z,0
2017-04-19T03:38:09.457Z,0
2017-04-19T03:39:19.616Z,0
2017-04-19T03:40:29.829Z,0
2017-04-19T03:41:39.425Z,0
2017-04-19T03:42:49.333Z,0
2017-04-19T03:43:59.551Z,0
2017-04-19T03:45:09.765Z,0
2017-04-19T03:46:19.971Z,0
2017-04-19T03:47:30.535Z,0
2017-04-19T03:48:40.138Z,0
2017-04-19T03:49:50.339Z,0
2017-04-19T03:51:00.337Z,0
2017-04-19T03:52:09.644Z,0
2017-04-19T03:53:18.941Z,0
2017-04-19T03:54:28.854Z,0
2017-04-19T03:55:38.757Z,0
2017-04-19T03:56:48.964Z,0
2017-04-19T03:57:59.190Z,0
2017-04-19T03:59:09.409Z,0
2017-04-19T04:00:19.626Z,0
2017-04-19T04:01:29.834Z,0
2017-04-19T04:02:39.990Z,0
2017-04-19T04:03:50.206Z,0
2017-04-19T04:04:59.803Z,0
2017-04-19T04:06:09.397Z,0
2017-04-19T04:07:19.640Z,0
2017-04-19T04:08:30.051Z,0
2017-04-19T04:09:39.954Z,0
2017-04-19T04:10:50.166Z,0
2017-04-19T04:12:00.390Z,0
2017-04-19T04:13:10.603Z,0
2017-04-19T04:14:21.167Z,0
2017-04-19T04:15:31.081Z,0
2017-04-19T04:16:40.994Z,0
2017-04-19T04:17:51.218Z,0
2017-04-19T04:19:01.443Z,0
2017-04-19T04:20:11.906Z,0
2017-04-19T04:21:21.495Z,0
2017-04-19T04:22:31.492Z,0
2017-04-19T04:23:41.709Z,0
2017-04-19T04:24:51.914Z,0
2017-04-19T04:26:02.750Z,0
2017-04-19T04:27:12.664Z,0
2017-04-19T04:28:22.582Z,0
2017-04-19T04:29:32.193Z,0
2017-04-19T04:30:42.404Z,0
2017-04-19T04:31:52.474Z,0
2017-04-19T04:33:01.786Z,0
2017-04-19T04:34:11.726Z,0
2017-04-19T04:35:21.031Z,0
2017-04-19T04:36:31.255Z,0
2017-04-19T04:37:41.794Z,0
2017-04-19T04:38:51.708Z,0
2017-04-19T04:40:01.021Z,5
2017-04-19T04:41:10.935Z,5
2017-04-19T04:42:21.161Z,5
2017-04-19T04:43:30.754Z,5
2017-04-19T04:44:40.667Z,5
2017-04-19T04:45:50.599Z,5
2017-04-19T04:47:00.209Z,5
2017-04-19T04:48:10.118Z,5
2017-04-19T04:49:20.744Z,5
2017-04-19T04:50:31.064Z,5
2017-04-19T04:51:40.667Z,5
2017-04-19T04:52:50.577Z,5
2017-04-19T04:54:00.784Z,10
2017-04-19T04:55:11.356Z,10
2017-04-19T04:56:21.574Z,10
2017-04-19T04:57:31.476Z,10
2017-04-19T04:58:40.458Z,10
2017-04-19T04:59:49.851Z,10
2017-04-19T05:01:00.385Z,10
2017-04-19T05:02:09.677Z,10
2017-04-19T05:03:19.598Z,10
2017-04-19T05:04:29.519Z,10
2017-04-19T05:05:39.118Z,15
2017-04-19T05:06:49.281Z,15
2017-04-19T05:07:59.213Z,15
2017-04-19T05:09:09.137Z,15
2017-04-19T05:10:18.739Z,15
2017-04-19T05:11:28.685Z,15
2017-04-19T05:12:38.622Z,15
2017-04-19T05:13:48.843Z,15
2017-04-19T05:14:58.763Z,15
2017-04-19T05:16:08.713Z,20
2017-04-19T05:17:18.324Z,20
2017-04-19T05:18:28.589Z,20
2017-04-19T05:19:38.820Z,20
2017-04-19T05:20:49.025Z,20
2017-04-19T05:21:58.700Z,20
2017-04-19T05:23:08.963Z,20
2017-04-19T05:24:19.186Z,20
2017-04-19T05:25:29.412Z,20
2017-04-19T05:26:39.040Z,20
2017-04-19T05:27:49.263Z,25
2017-04-19T05:28:59.511Z,25
2017-04-19T05:30:09.877Z,25
2017-04-19T05:31:19.176Z,30
2017-04-19T05:32:29.108Z,95
2017-04-19T05:33:38.746Z,215
2017-04-19T05:34:48.038Z,315
2017-04-19T05:35:58.504Z,290
2017-04-19T05:37:08.727Z,305
2017-04-19T05:38:18.643Z,305
2017-04-19T05:39:28.552Z,340
2017-04-19T05:40:38.156Z,340
2017-04-19T05:41:48.525Z,350
2017-04-19T05:42:58.746Z,395
2017-04-19T05:44:08.655Z,395
2017-04-19T05:45:18.875Z,375
2017-04-19T05:46:28.787Z,380
2017-04-19T05:47:38.640Z,400
2017-04-19T05:48:48.551Z,420
2017-04-19T05:49:58.234Z,460
2017-04-19T05:51:08.515Z,475
2017-04-19T05:52:18.424Z,460
2017-04-19T05:53:28.397Z,420
2017-04-19T05:54:38.317Z,420
2017-04-19T05:55:48.539Z,430
2017-04-19T05:56:58.761Z,455
2017-04-19T05:58:08.676Z,460
2017-04-19T05:59:18.872Z,475
2017-04-19T06:00:28.188Z,475
2017-04-19T06:01:38.441Z,385
2017-04-19T06:02:48.042Z,280
2017-04-19T06:03:57.955Z,95
2017-04-19T06:05:08.585Z,45
2017-04-19T06:06:18.526Z,40
2017-04-19T06:07:28.759Z,40
2017-04-19T06:08:38.687Z,40
2017-04-19T06:09:48.654Z,40
2017-04-19T06:10:59.126Z,40
2017-04-19T06:12:08.723Z,40
2017-04-19T06:13:18.320Z,40
2017-04-19T06:14:28.264Z,40
2017-04-19T06:15:38.483Z,40
2017-04-19T06:16:48.491Z,40
2017-04-19T06:17:58.706Z,40
2017-04-19T06:19:08.627Z,40
2017-04-19T06:20:18.618Z,40
2017-04-19T06:21:28.531Z,40
2017-04-19T06:22:39.063Z,40
2017-04-19T06:23:48.863Z,45
2017-04-19T06:25:30.557Z,45
2017-04-19T06:26:40.168Z,45
2017-04-19T06:27:50.330Z,40
2017-04-19T06:29:00.556Z,45
2017-04-19T06:30:10.162Z,45
2017-04-19T06:31:20.394Z,45
2017-04-19T06:32:30.016Z,45
2017-04-19T06:33:40.262Z,45
2017-04-19T06:34:50.175Z,45
2017-04-19T06:35:59.480Z,45
2017-04-19T06:37:09.769Z,40
2017-04-19T06:38:20.287Z,40
2017-04-19T06:39:30.713Z,40
2017-04-19T06:40:40.940Z,40
2017-04-19T06:41:51.180Z,40
2017-04-19T06:43:01.103Z,45
2017-04-19T06:44:11.019Z,45
2017-04-19T06:45:20.724Z,45
2017-04-19T06:46:30.956Z,45
2017-04-19T06:47:40.590Z,45
2017-04-19T06:48:50.814Z,45
2017-04-19T06:50:01.047Z,45
2017-04-19T06:51:11.591Z,45
2017-04-19T06:52:21.829Z,45
2017-04-19T06:53:31.910Z,45
2017-04-19T06:54:41.828Z,45
2017-04-19T06:55:51.746Z,45
2017-04-19T06:57:01.666Z,45
2017-04-19T06:58:11.882Z,45
2017-04-19T06:59:21.179Z,45
2017-04-19T07:00:31.403Z,45
2017-04-19T07:01:41.683Z,45
2017-04-19T07:02:52.043Z,45
2017-04-19T07:04:02.520Z,45
2017-04-19T07:05:12.799Z,45
2017-04-19T07:06:23.070Z,45
2017-04-19T07:07:33.211Z,45
2017-04-19T07:08:43.712Z,45
2017-04-19T07:09:53.932Z,45
2017-04-19T07:11:03.852Z,50
2017-04-19T07:12:13.471Z,50
2017-04-19T07:13:23.642Z,50
2017-04-19T07:14:34.136Z,50
2017-04-19T07:15:43.438Z,65
2017-04-19T07:16:53.360Z,55
2017-04-19T07:18:03.272Z,50
2017-04-19T07:19:12.874Z,50
2017-04-19T07:20:23.456Z,55
2017-04-19T07:21:32.772Z,60
2017-04-19T07:22:43.004Z,70
2017-04-19T07:23:52.999Z,90
2017-04-19T07:25:03.254Z,65
2017-04-19T07:26:13.864Z,55
2017-04-19T07:27:23.668Z,50
2017-04-19T07:28:33.315Z,50
2017-04-19T07:29:43.534Z,55
2017-04-19T07:30:53.781Z,65
2017-04-19T07:32:03.978Z,70
2017-04-19T07:33:14.198Z,65
2017-04-19T07:34:24.417Z,75
2017-04-19T07:35:34.344Z,265
2017-04-19T07:36:44.265Z,655
2017-04-19T07:37:54.619Z,840
2017-04-19T07:39:04.531Z,820
2017-04-19T07:40:14.516Z,740
2017-04-19T07:41:24.786Z,670
2017-04-19T07:42:35.017Z,695
2017-04-19T07:43:45.082Z,370
2017-04-19T07:44:55.044Z,205
2017-04-19T07:46:04.953Z,580
2017-04-19T07:47:14.568Z,570
2017-04-19T07:48:24.314Z,570
2017-04-19T07:49:34.198Z,695
2017-04-19T07:50:44.435Z,780
2017-04-19T07:51:54.358Z,75
2017-04-19T07:53:04.617Z,640
2017-04-19T07:54:14.597Z,60
2017-04-19T07:55:24.989Z,320
2017-04-19T07:56:34.601Z,895
2017-04-19T07:57:44.521Z,100
2017-04-19T07:58:54.694Z,880
2017-04-19T08:00:04.943Z,415
2017-04-19T08:01:14.299Z,795
2017-04-19T08:02:24.532Z,345
2017-04-19T08:03:34.775Z,105
2017-04-19T08:04:44.838Z,75
2017-04-19T08:05:55.121Z,75
2017-04-19T08:07:05.196Z,70
2017-04-19T08:08:15.116Z,90
2017-04-19T08:09:24.751Z,75
2017-04-19T08:10:34.369Z,65
2017-04-19T08:11:43.989Z,55
2017-04-19T08:12:54.373Z,60
2017-04-19T08:14:04.626Z,70
2017-04-19T08:15:14.250Z,70
2017-04-19T08:16:24.205Z,85
2017-04-19T08:17:33.832Z,95
2017-04-19T08:18:44.001Z,60
2017-04-19T08:19:53.912Z,60
2017-04-19T08:21:03.520Z,65
2017-04-19T08:22:13.481Z,65
2017-04-19T08:23:23.429Z,45
2017-04-19T08:24:33.752Z,45
2017-04-19T08:25:43.676Z,55
2017-04-19T08:26:53.016Z,60
2017-04-19T08:28:02.688Z,50
2017-04-19T08:29:12.952Z,55
2017-04-19T08:30:22.506Z,50
2017-04-19T08:31:32.446Z,50
2017-04-19T08:32:42.692Z,65
2017-04-19T08:33:52.622Z,40
2017-04-19T08:35:02.245Z,40
2017-04-19T08:36:12.473Z,45
2017-04-19T08:37:22.093Z,50
2017-04-19T08:38:31.767Z,55
2017-04-19T08:39:41.678Z,55
2017-04-19T08:40:51.608Z,60
2017-04-19T08:42:01.675Z,80
2017-04-19T08:43:11.590Z,70
2017-04-19T08:44:21.564Z,55
2017-04-19T08:45:31.551Z,55
2017-04-19T08:46:41.211Z,60
2017-04-19T08:47:50.821Z,55
2017-04-19T08:49:01.046Z,55
2017-04-19T08:50:10.658Z,55
2017-04-19T08:51:21.261Z,55
2017-04-19T08:52:30.870Z,60
2017-04-19T08:53:40.415Z,55
2017-04-19T08:54:50.019Z,60
2017-04-19T08:55:59.621Z,50
2017-04-19T08:57:09.579Z,50
2017-04-19T08:58:19.192Z,50
2017-04-19T08:59:29.358Z,55
2017-04-19T09:00:39.179Z,55
2017-04-19T09:01:48.832Z,55
2017-04-19T09:02:59.056Z,55
2017-04-19T09:04:08.983Z,55
2017-04-19T09:05:19.258Z,55
2017-04-19T09:06:28.865Z,55
2017-04-19T09:07:38.177Z,50
2017-04-19T09:08:47.799Z,50
2017-04-19T09:09:57.408Z,50
2017-04-19T09:11:07.957Z,50
2017-04-19T09:12:17.891Z,55
2017-04-19T09:13:27.824Z,55
2017-04-19T09:14:37.443Z,55
2017-04-19T09:15:47.067Z,55
2017-04-19T09:16:57.135Z,60
2017-04-19T09:18:06.741Z,70
2017-04-19T09:19:16.650Z,75
2017-04-19T09:20:26.269Z,70
2017-04-19T09:21:35.887Z,55
2017-04-19T09:22:46.260Z,55
2017-04-19T09:23:56.221Z,60
2017-04-19T09:25:05.826Z,65
2017-04-19T09:26:15.435Z,60
2017-04-19T09:27:25.433Z,65
2017-04-19T09:28:35.298Z,60
2017-04-19T09:29:44.909Z,50
2017-04-19T09:30:54.512Z,45
2017-04-19T09:32:04.729Z,50
2017-04-19T09:33:13.725Z,55
2017-04-19T09:34:23.207Z,60
2017-04-19T09:35:33.127Z,65
2017-04-19T09:36:43.061Z,65
2017-04-19T09:37:52.378Z,65
2017-04-19T09:39:02.314Z,65
2017-04-19T09:40:12.244Z,60
2017-04-19T09:41:21.548Z,55
2017-04-19T09:42:31.486Z,55
2017-04-19T09:43:41.390Z,50
2017-04-19T09:44:51.609Z,55
2017-04-19T09:46:01.776Z,60
2017-04-19T09:47:11.694Z,55
2017-04-19T09:48:21.925Z,55
2017-04-19T09:49:32.197Z,50
2017-04-19T09:50:42.113Z,55
2017-04-19T09:51:51.971Z,50
2017-04-19T09:53:01.277Z,60
2017-04-19T09:54:11.503Z,55
2017-04-19T09:55:21.129Z,70
2017-04-19T09:56:31.242Z,80
2017-04-19T09:57:41.329Z,75
2017-04-19T09:58:51.234Z,60
2017-04-19T10:00:00.869Z,50
2017-04-19T10:01:10.797Z,60
2017-04-19T10:02:20.416Z,70
2017-04-19T10:03:30.379Z,80
2017-04-19T10:04:40.317Z,80
2017-04-19T10:05:50.543Z,80
2017-04-19T10:07:00.456Z,70
2017-04-19T10:08:10.068Z,60
2017-04-19T10:09:20.249Z,60
2017-04-19T10:10:30.158Z,65
2017-04-19T10:11:40.077Z,60
2017-04-19T10:12:49.690Z,55
2017-04-19T10:13:59.606Z,55
2017-04-19T10:15:09.305Z,60
2017-04-19T10:16:19.602Z,60
2017-04-19T10:17:29.530Z,55
2017-04-19T10:18:39.141Z,50
2017-04-19T10:19:48.473Z,55
2017-04-19T10:20:58.149Z,60
2017-04-19T10:22:07.762Z,55
2017-04-19T10:23:17.364Z,55
2017-04-19T10:24:27.038Z,60
2017-04-19T10:25:37.139Z,60
2017-04-19T10:26:47.490Z,65
2017-04-19T10:27:57.105Z,70
2017-04-19T10:29:06.706Z,55
2017-04-19T10:30:16.944Z,50
2017-04-19T10:31:26.865Z,55
2017-04-19T10:32:37.242Z,65
2017-04-19T10:33:47.464Z,55
2017-04-19T10:34:57.379Z,65
2017-04-19T10:36:07.287Z,75
2017-04-19T10:37:17.512Z,80
2017-04-19T10:38:27.198Z,75
2017-04-19T10:39:37.430Z,70
2017-04-19T10:40:47.660Z,70
2017-04-19T10:41:57.569Z,65
2017-04-19T10:43:07.793Z,65
2017-04-19T10:44:17.557Z,65
2017-04-19T10:45:27.468Z,70
2017-04-19T10:46:37.391Z,65
2017-04-19T10:47:47.304Z,70
2017-04-19T10:48:56.919Z,75
2017-04-19T10:50:07.305Z,75
2017-04-19T10:51:16.636Z,75
2017-04-19T10:52:26.963Z,65
2017-04-19T10:53:36.878Z,55
2017-04-19T10:54:46.502Z,50
2017-04-19T10:55:56.882Z,50
2017-04-19T10:57:06.193Z,50
2017-04-19T10:58:16.410Z,50
2017-04-19T10:59:26.638Z,55
2017-04-19T11:00:36.865Z,60
2017-04-19T11:01:47.256Z,65
2017-04-19T11:02:57.483Z,70
2017-04-19T11:04:06.807Z,75
2017-04-19T11:05:16.720Z,80
2017-04-19T11:06:26.625Z,80
2017-04-19T11:07:36.385Z,80
2017-04-19T11:08:45.407Z,75
2017-04-19T11:09:55.624Z,70
2017-04-19T11:11:05.837Z,70
2017-04-19T11:12:16.054Z,65
2017-04-19T11:13:26.568Z,55
2017-04-19T11:14:36.778Z,55
2017-04-19T11:15:46.401Z,65
2017-04-19T11:16:55.705Z,70
2017-04-19T11:18:05.306Z,70
2017-04-19T11:19:15.570Z,75
2017-04-19T11:20:25.182Z,75
2017-04-19T11:21:35.711Z,70
2017-04-19T11:22:46.169Z,70
2017-04-19T11:23:55.793Z,65
2017-04-19T11:25:05.683Z,60
2017-04-19T11:26:15.305Z,55
2017-04-19T11:27:25.219Z,60
2017-04-19T11:28:34.863Z,65
2017-04-19T11:29:45.099Z,60
2017-04-19T11:30:54.650Z,60
2017-04-19T11:32:04.868Z,60
2017-04-19T11:33:14.476Z,60
2017-04-19T11:34:24.105Z,55
2017-04-19T11:35:34.062Z,60
2017-04-19T11:36:43.969Z,60
2017-04-19T11:37:53.594Z,70
2017-04-19T11:39:03.553Z,70
2017-04-19T11:40:13.169Z,70
2017-04-19T11:41:22.469Z,65
2017-04-19T11:42:32.190Z,60
2017-04-19T11:43:41.801Z,55
2017-04-19T11:44:51.712Z,45
2017-04-19T11:46:01.330Z,40
2017-04-19T11:47:11.247Z,35
2017-04-19T11:48:21.181Z,35
2017-04-19T11:49:30.780Z,35
2017-04-19T11:50:40.398Z,35
2017-04-19T11:51:50.544Z,45
2017-04-19T11:53:00.475Z,50
2017-04-19T11:54:10.513Z,55
2017-04-19T11:55:20.434Z,60
2017-04-19T11:56:30.351Z,65
2017-04-19T11:57:39.947Z,75
2017-04-19T11:58:49.538Z,70
2017-04-19T11:59:59.808Z,75
2017-04-19T12:01:09.412Z,75
2017-04-19T12:02:19.346Z,70
2017-04-19T12:03:29.568Z,60
2017-04-19T12:04:39.182Z,55
2017-04-19T12:05:49.151Z,50
2017-04-19T12:06:58.755Z,45
2017-04-19T12:08:08.975Z,50
2017-04-19T12:09:18.271Z,50
2017-04-19T12:10:28.199Z,50
2017-04-19T12:11:38.425Z,50
2017-04-19T12:12:48.059Z,55
2017-04-19T12:13:57.975Z,60
2017-04-19T12:15:07.267Z,65
2017-04-19T12:16:16.585Z,70
2017-04-19T12:17:27.117Z,70
2017-04-19T12:18:37.042Z,65
2017-04-19T12:19:47.267Z,60
2017-04-19T12:20:57.494Z,55
2017-04-19T12:22:07.718Z,50
2017-04-19T12:23:17.590Z,40
2017-04-19T12:24:26.583Z,40
2017-04-19T12:25:35.887Z,40
2017-04-19T12:26:45.822Z,45
2017-04-19T12:27:55.777Z,45
2017-04-19T12:29:06.300Z,45
2017-04-19T12:30:16.210Z,45
2017-04-19T12:31:25.515Z,50
2017-04-19T12:32:35.734Z,55
2017-04-19T12:33:45.648Z,55
2017-04-19T12:34:55.510Z,60
2017-04-19T12:36:05.131Z,65
2017-04-19T12:37:14.733Z,65
2017-04-19T12:38:24.650Z,70
2017-04-19T12:39:34.262Z,70
2017-04-19T12:40:43.416Z,70
2017-04-19T12:41:53.323Z,65
2017-04-19T12:43:02.933Z,55
2017-04-19T12:44:12.241Z,55
2017-04-19T12:45:22.151Z,55
2017-04-19T12:46:31.590Z,55
2017-04-19T12:47:41.502Z,55
2017-04-19T12:48:51.126Z,60
2017-04-19T12:50:00.646Z,60
2017-04-19T12:51:10.567Z,65
2017-04-19T12:52:20.047Z,65
2017-04-19T12:53:29.855Z,65
2017-04-19T12:54:39.770Z,65
2017-04-19T12:55:49.713Z,50
2017-04-19T12:56:59.627Z,45
2017-04-19T12:58:09.542Z,45
2017-04-19T12:59:19.152Z,45
2017-04-19T13:00:28.787Z,55
2017-04-19T13:01:38.400Z,55
2017-04-19T13:02:48.072Z,60
2017-04-19T13:03:58.115Z,70
2017-04-19T13:05:08.050Z,70
2017-04-19T13:06:17.710Z,65
2017-04-19T13:07:27.324Z,60
2017-04-19T13:08:36.620Z,55
2017-04-19T13:09:46.659Z,50
2017-04-19T13:10:56.869Z,45
2017-04-19T13:12:06.469Z,45
2017-04-19T13:13:15.454Z,45
2017-04-19T13:14:25.067Z,50
2017-04-19T13:15:35.437Z,50
2017-04-19T13:16:44.439Z,55
2017-04-19T13:17:54.086Z,55
2017-04-19T13:19:03.395Z,55
2017-04-19T13:20:13.015Z,60
2017-04-19T13:21:22.858Z,55
2017-04-19T13:22:32.467Z,50
2017-04-19T13:23:42.371Z,40
2017-04-19T13:24:52.472Z,35
2017-04-19T13:26:02.395Z,35
2017-04-19T13:27:12.558Z,30
2017-04-19T13:28:22.159Z,30
2017-04-19T13:29:31.765Z,40
2017-04-19T13:30:41.687Z,40
2017-04-19T13:31:51.594Z,35
2017-04-19T13:33:02.093Z,40
2017-04-19T13:34:12.009Z,50
2017-04-19T13:35:21.304Z,55
2017-04-19T13:36:30.916Z,60
2017-04-19T13:37:40.529Z,65
2017-04-19T13:38:49.975Z,65
2017-04-19T13:40:00.193Z,60
2017-04-19T13:41:10.114Z,50
2017-04-19T13:42:19.711Z,45
2017-04-19T13:43:29.625Z,45
2017-04-19T13:44:39.717Z,45
2017-04-19T13:45:48.881Z,45
2017-04-19T13:46:58.618Z,45
2017-04-19T13:48:07.645Z,45
2017-04-19T13:49:17.074Z,50
2017-04-19T13:50:26.952Z,50
2017-04-19T13:51:36.673Z,50
2017-04-19T13:52:46.684Z,50
2017-04-19T13:53:56.407Z,50
2017-04-19T13:55:06.079Z,50
2017-04-19T13:56:16.624Z,50
2017-04-19T13:57:26.289Z,45
2017-04-19T13:58:36.257Z,45
2017-04-19T13:59:45.989Z,40
2017-04-19T14:00:56.349Z,35
2017-04-19T14:02:06.061Z,30
2017-04-19T14:03:16.286Z,25
2017-04-19T14:04:25.900Z,25
2017-04-19T14:05:36.117Z,25
2017-04-19T14:06:45.762Z,30
2017-04-19T14:07:56.228Z,35
2017-04-19T14:09:06.458Z,35
2017-04-19T14:10:16.080Z,35
2017-04-19T14:11:25.987Z,40
2017-04-19T14:12:36.046Z,45
2017-04-19T14:13:45.918Z,50
2017-04-19T14:14:55.536Z,55
2017-04-19T14:16:05.146Z,55
2017-04-19T14:17:14.153Z,60
2017-04-19T14:18:23.768Z,55
2017-04-19T14:19:34.336Z,55
2017-04-19T14:20:43.950Z,55
2017-04-19T14:21:54.188Z,50
2017-04-19T14:23:04.161Z,50
2017-04-19T14:24:14.298Z,55
2017-04-19T14:25:24.214Z,50
2017-04-19T14:26:34.265Z,45
2017-04-19T14:27:43.583Z,40
2017-04-19T14:28:53.525Z,40
2017-04-19T14:30:03.449Z,35
2017-04-19T14:31:13.046Z,35
2017-04-19T14:32:22.970Z,35
2017-04-19T14:33:33.195Z,35
2017-04-19T14:34:43.162Z,40
2017-04-19T14:35:53.426Z,45
2017-04-19T14:37:03.361Z,45
2017-04-19T14:38:12.984Z,50
2017-04-19T14:39:23.211Z,55
2017-04-19T14:40:33.139Z,55
2017-04-19T14:41:43.368Z,55
2017-04-19T14:42:53.333Z,50
2017-04-19T14:44:03.543Z,45
2017-04-19T14:45:13.465Z,45
2017-04-19T14:46:23.392Z,45
2017-04-19T14:47:33.612Z,40
2017-04-19T14:48:44.196Z,40
2017-04-19T14:49:54.128Z,40
2017-04-19T14:51:03.835Z,40
2017-04-19T14:52:14.060Z,45
2017-04-19T14:53:23.984Z,45
2017-04-19T14:54:34.607Z,40
2017-04-19T14:55:44.573Z,40
2017-04-19T14:56:54.521Z,35
2017-04-19T14:58:04.447Z,30
2017-04-19T14:59:14.362Z,25
2017-04-19T15:00:24.575Z,25
2017-04-19T15:01:34.801Z,25
2017-04-19T15:02:45.014Z,25
2017-04-19T15:03:54.331Z,25
2017-04-19T15:05:04.554Z,25
2017-04-19T15:06:14.867Z,25
2017-04-19T15:07:24.786Z,30
2017-04-19T15:08:35.010Z,35
2017-04-19T15:09:44.701Z,40
2017-04-19T15:10:54.992Z,35
2017-04-19T15:12:04.832Z,35
2017-04-19T15:13:13.993Z,35
2017-04-19T15:14:23.741Z,35
2017-04-19T15:15:33.372Z,35
2017-04-19T15:16:43.339Z,35
2017-04-19T15:17:53.588Z,35
2017-04-19T15:19:03.867Z,35
2017-04-19T15:20:13.198Z,35
2017-04-19T15:21:22.587Z,35
2017-04-19T15:22:32.892Z,35
2017-04-19T15:23:42.722Z,40
2017-04-19T15:24:52.404Z,40
2017-04-19T15:26:02.011Z,40
2017-04-19T15:27:12.390Z,40
2017-04-19T15:28:22.465Z,40
2017-04-19T15:29:32.893Z,40
2017-04-19T15:30:42.539Z,35
2017-04-19T15:31:52.148Z,35
2017-04-19T15:33:02.153Z,35
2017-04-19T15:34:12.482Z,35
2017-04-19T15:35:22.644Z,30
2017-04-19T15:36:32.260Z,30
2017-04-19T15:37:42.331Z,25
2017-04-19T15:38:51.939Z,25
2017-04-19T15:40:02.168Z,25
2017-04-19T15:41:12.684Z,25
2017-04-19T15:42:23.054Z,25
2017-04-19T15:43:32.690Z,25
2017-04-19T15:44:42.916Z,25
2017-04-19T15:45:52.856Z,20
2017-04-19T15:47:02.774Z,20
2017-04-19T15:48:12.397Z,20
2017-04-19T15:49:21.703Z,20
2017-04-19T15:50:31.327Z,20
2017-04-19T15:51:41.294Z,20
2017-04-19T15:52:50.546Z,20
2017-04-19T15:54:00.465Z,20
2017-04-19T15:55:10.074Z,20
2017-04-19T15:56:19.999Z,20
2017-04-19T15:57:29.923Z,20
2017-04-19T15:58:40.566Z,20
2017-04-19T15:59:50.483Z,25
2017-04-19T16:01:00.635Z,25
2017-04-19T16:02:10.574Z,25
2017-04-19T16:03:20.796Z,25
2017-04-19T16:04:30.804Z,25
2017-04-19T16:05:40.440Z,30
2017-04-19T16:06:50.342Z,30
2017-04-19T16:07:59.945Z,35
2017-04-19T16:09:09.578Z,35
2017-04-19T16:10:20.099Z,30
2017-04-19T16:11:29.997Z,30
2017-04-19T16:12:39.918Z,30
2017-04-19T16:13:49.227Z,35
2017-04-19T16:14:59.452Z,30
2017-04-19T16:16:09.334Z,30
2017-04-19T16:17:19.244Z,30
2017-04-19T16:18:29.183Z,25
2017-04-19T16:19:39.417Z,25
2017-04-19T16:20:49.342Z,30
2017-04-19T16:21:59.111Z,25
2017-04-19T16:23:09.019Z,30
2017-04-19T16:24:18.955Z,30
2017-04-19T16:25:27.660Z,25
2017-04-19T16:26:37.586Z,25
2017-04-19T16:27:47.447Z,25
2017-04-19T16:28:57.664Z,25
2017-04-19T16:30:07.585Z,25
2017-04-19T16:31:16.972Z,25
2017-04-19T16:32:26.686Z,20
2017-04-19T16:33:36.462Z,20
2017-04-19T16:34:46.318Z,20
2017-04-19T16:35:56.232Z,20
2017-04-19T16:37:06.187Z,20
2017-04-19T16:38:15.950Z,20
2017-04-19T16:39:26.570Z,20
2017-04-19T16:40:35.910Z,20
2017-04-19T16:41:46.169Z,20
2017-04-19T16:42:55.837Z,20
2017-04-19T16:44:05.756Z,20
2017-04-19T16:45:15.775Z,20